sensor_id;sensor_type;location;lat;lon;timestamp;temperature;humidity
5274;DHT22;56254;50.956;7.010;2022-07-22T00:01:01;20.10;99.90
5274;DHT22;56254;50.956;7.010;2022-07-22T00:03:27;19.90;99.90
5274;DHT22;56254;50.956;7.010;2022-07-22T00:05:53;20.00;99.90
5274;DHT22;56254;50.956;7.010;2022-07-22T00:08:19;19.90;99.90
5274;DHT22;56254;50.956;7.010;2022-07-22T00:10:45;19.90;99.90
5274;DHT22;56254;50.956;7.010;2022-07-22T00:13:11;19.90;99.90
5274;DHT22;56254;50.956;7.010;2022-07-22T00:15:37;19.90;99.90
5274;DHT22;56254;50.956;7.010;2022-07-22T00:18:04;19.80;99.90
5274;DHT22;56254;50.956;7.010;2022-07-22T00:20:30;19.80;99.90
5274;DHT22;56254;50.956;7.010;2022-07-22T00:22:56;19.90;99.90
5274;DHT22;56254;50.956;7.010;2022-07-22T00:25:22;20.00;99.90
5274;DHT22;56254;50.956;7.010;2022-07-22T00:27:57;20.00;99.90
5274;DHT22;56254;50.956;7.010;2022-07-22T00:30:22;20.00;99.90
5274;DHT22;56254;50.956;7.010;2022-07-22T00:32:48;20.00;99.90
5274;DHT22;56254;50.956;7.010;2022-07-22T00:35:14;20.10;99.90
5274;DHT22;56254;50.956;7.010;2022-07-22T00:37:40;20.00;99.90
5274;DHT22;56254;50.956;7.010;2022-07-22T00:40:06;20.10;99.90
5274;DHT22;56254;50.956;7.010;2022-07-22T00:42:32;20.10;99.90
5274;DHT22;56254;50.956;7.010;2022-07-22T00:44:59;20.00;99.90
5274;DHT22;56254;50.956;7.010;2022-07-22T00:47:25;20.00;99.90
5274;DHT22;56254;50.956;7.010;2022-07-22T00:49:50;19.90;99.90
5274;DHT22;56254;50.956;7.010;2022-07-22T00:52:18;20.00;99.90
5274;DHT22;56254;50.956;7.010;2022-07-22T00:54:45;20.00;99.90
5274;DHT22;56254;50.956;7.010;2022-07-22T00:57:11;19.90;99.90
5274;DHT22;56254;50.956;7.010;2022-07-22T00:59:37;19.90;99.90
5274;DHT22;56254;50.956;7.010;2022-07-22T01:02:03;20.00;99.90
5274;DHT22;56254;50.956;7.010;2022-07-22T01:04:29;19.90;99.90
5274;DHT22;56254;50.956;7.010;2022-07-22T01:06:54;19.80;99.90
5274;DHT22;56254;50.956;7.010;2022-07-22T01:09:20;19.80;99.90
5274;DHT22;56254;50.956;7.010;2022-07-22T01:11:46;20.00;99.90
5274;DHT22;56254;50.956;7.010;2022-07-22T01:14:12;20.00;99.90
5274;DHT22;56254;50.956;7.010;2022-07-22T01:16:38;19.90;99.90
5274;DHT22;56254;50.956;7.010;2022-07-22T01:19:04;20.00;99.90
5274;DHT22;56254;50.956;7.010;2022-07-22T01:21:30;19.90;99.90
5274;DHT22;56254;50.956;7.010;2022-07-22T01:23:56;19.90;99.90
5274;DHT22;56254;50.956;7.010;2022-07-22T01:26:22;20.00;99.90
5274;DHT22;56254;50.956;7.010;2022-07-22T01:28:48;19.80;99.90
5274;DHT22;56254;50.956;7.010;2022-07-22T01:31:16;19.80;99.90
5274;DHT22;56254;50.956;7.010;2022-07-22T01:33:42;19.90;99.90
5274;DHT22;56254;50.956;7.010;2022-07-22T01:36:08;20.00;99.90
5274;DHT22;56254;50.956;7.010;2022-07-22T01:38:34;19.90;99.90
5274;DHT22;56254;50.956;7.010;2022-07-22T01:41:00;19.90;99.90
5274;DHT22;56254;50.956;7.010;2022-07-22T01:43:25;19.80;99.90
5274;DHT22;56254;50.956;7.010;2022-07-22T01:45:52;19.80;99.90
5274;DHT22;56254;50.956;7.010;2022-07-22T01:48:19;19.80;99.90
5274;DHT22;56254;50.956;7.010;2022-07-22T01:50:45;19.80;99.90
5274;DHT22;56254;50.956;7.010;2022-07-22T01:53:11;19.70;99.90
5274;DHT22;56254;50.956;7.010;2022-07-22T01:55:37;19.70;99.90
5274;DHT22;56254;50.956;7.010;2022-07-22T01:58:04;19.80;99.90
5274;DHT22;56254;50.956;7.010;2022-07-22T02:00:32;19.80;99.90
5274;DHT22;56254;50.956;7.010;2022-07-22T02:02:58;19.60;99.90
5274;DHT22;56254;50.956;7.010;2022-07-22T02:05:24;19.60;99.90
5274;DHT22;56254;50.956;7.010;2022-07-22T02:07:50;19.60;99.90
5274;DHT22;56254;50.956;7.010;2022-07-22T02:10:16;19.60;99.90
5274;DHT22;56254;50.956;7.010;2022-07-22T02:12:41;19.50;99.90
5274;DHT22;56254;50.956;7.010;2022-07-22T02:15:07;19.70;99.90
5274;DHT22;56254;50.956;7.010;2022-07-22T02:17:34;19.70;99.90
5274;DHT22;56254;50.956;7.010;2022-07-22T02:20:01;19.70;99.90
5274;DHT22;56254;50.956;7.010;2022-07-22T02:22:27;19.50;99.90
5274;DHT22;56254;50.956;7.010;2022-07-22T02:24:58;19.50;99.90
5274;DHT22;56254;50.956;7.010;2022-07-22T02:27:23;19.60;99.90
5274;DHT22;56254;50.956;7.010;2022-07-22T02:29:49;19.50;99.90
5274;DHT22;56254;50.956;7.010;2022-07-22T02:32:16;19.50;99.90
5274;DHT22;56254;50.956;7.010;2022-07-22T02:34:42;19.60;99.90
5274;DHT22;56254;50.956;7.010;2022-07-22T02:37:07;19.60;99.90
5274;DHT22;56254;50.956;7.010;2022-07-22T02:39:34;19.60;99.90
5274;DHT22;56254;50.956;7.010;2022-07-22T02:42:00;19.50;99.90
5274;DHT22;56254;50.956;7.010;2022-07-22T02:44:26;19.70;99.90
5274;DHT22;56254;50.956;7.010;2022-07-22T02:47:02;19.70;99.90
5274;DHT22;56254;50.956;7.010;2022-07-22T02:49:28;19.70;99.90
5274;DHT22;56254;50.956;7.010;2022-07-22T02:51:54;19.80;99.90
5274;DHT22;56254;50.956;7.010;2022-07-22T02:54:20;19.70;99.90
5274;DHT22;56254;50.956;7.010;2022-07-22T02:56:45;19.70;99.90
5274;DHT22;56254;50.956;7.010;2022-07-22T02:59:11;19.60;99.90
5274;DHT22;56254;50.956;7.010;2022-07-22T03:01:37;19.70;99.90
5274;DHT22;56254;50.956;7.010;2022-07-22T03:04:02;19.70;99.90
5274;DHT22;56254;50.956;7.010;2022-07-22T03:06:28;19.70;99.90
5274;DHT22;56254;50.956;7.010;2022-07-22T03:08:54;19.70;99.90
5274;DHT22;56254;50.956;7.010;2022-07-22T03:11:20;19.70;99.90
5274;DHT22;56254;50.956;7.010;2022-07-22T03:13:46;19.70;99.90
5274;DHT22;56254;50.956;7.010;2022-07-22T03:16:11;19.70;99.90
5274;DHT22;56254;50.956;7.010;2022-07-22T03:18:37;19.70;99.90
5274;DHT22;56254;50.956;7.010;2022-07-22T03:21:03;19.70;99.90
5274;DHT22;56254;50.956;7.010;2022-07-22T03:23:29;19.70;99.90
5274;DHT22;56254;50.956;7.010;2022-07-22T03:25:55;19.70;99.90
5274;DHT22;56254;50.956;7.010;2022-07-22T03:28:22;19.80;99.90
5274;DHT22;56254;50.956;7.010;2022-07-22T03:30:48;19.70;99.90
5274;DHT22;56254;50.956;7.010;2022-07-22T03:33:13;19.70;99.90
5274;DHT22;56254;50.956;7.010;2022-07-22T03:35:39;19.70;99.90
5274;DHT22;56254;50.956;7.010;2022-07-22T03:38:05;19.70;99.90
5274;DHT22;56254;50.956;7.010;2022-07-22T03:40:31;19.80;99.90
5274;DHT22;56254;50.956;7.010;2022-07-22T03:42:56;19.70;99.90
5274;DHT22;56254;50.956;7.010;2022-07-22T03:45:22;19.70;99.90
5274;DHT22;56254;50.956;7.010;2022-07-22T03:47:48;19.70;99.90
5274;DHT22;56254;50.956;7.010;2022-07-22T03:50:13;19.70;99.90
5274;DHT22;56254;50.956;7.010;2022-07-22T03:52:40;19.70;99.90
5274;DHT22;56254;50.956;7.010;2022-07-22T03:55:07;19.70;99.90
5274;DHT22;56254;50.956;7.010;2022-07-22T03:57:33;19.70;99.90
5274;DHT22;56254;50.956;7.010;2022-07-22T04:00:01;19.70;99.90
5274;DHT22;56254;50.956;7.010;2022-07-22T04:02:27;19.70;99.90
5274;DHT22;56254;50.956;7.010;2022-07-22T04:04:52;19.70;99.90
5274;DHT22;56254;50.956;7.010;2022-07-22T04:07:18;19.80;99.90
5274;DHT22;56254;50.956;7.010;2022-07-22T04:09:44;19.70;99.90
5274;DHT22;56254;50.956;7.010;2022-07-22T04:12:10;19.80;99.90
5274;DHT22;56254;50.956;7.010;2022-07-22T04:14:37;19.80;99.90
5274;DHT22;56254;50.956;7.010;2022-07-22T04:17:02;19.80;99.90
5274;DHT22;56254;50.956;7.010;2022-07-22T04:19:28;19.80;99.90
5274;DHT22;56254;50.956;7.010;2022-07-22T04:21:54;19.80;99.90
5274;DHT22;56254;50.956;7.010;2022-07-22T04:24:20;19.80;99.90
5274;DHT22;56254;50.956;7.010;2022-07-22T04:26:46;19.80;99.90
5274;DHT22;56254;50.956;7.010;2022-07-22T04:29:12;19.70;99.90
5274;DHT22;56254;50.956;7.010;2022-07-22T04:31:38;19.70;99.90
5274;DHT22;56254;50.956;7.010;2022-07-22T04:34:04;19.70;99.90
5274;DHT22;56254;50.956;7.010;2022-07-22T04:36:30;19.60;99.90
5274;DHT22;56254;50.956;7.010;2022-07-22T04:38:55;19.60;99.90
5274;DHT22;56254;50.956;7.010;2022-07-22T04:41:21;19.60;99.90
5274;DHT22;56254;50.956;7.010;2022-07-22T04:43:47;19.70;99.90
5274;DHT22;56254;50.956;7.010;2022-07-22T04:46:13;19.60;99.90
5274;DHT22;56254;50.956;7.010;2022-07-22T04:48:39;19.70;99.90
5274;DHT22;56254;50.956;7.010;2022-07-22T04:51:05;19.80;99.90
5274;DHT22;56254;50.956;7.010;2022-07-22T04:53:31;19.80;99.90
5274;DHT22;56254;50.956;7.010;2022-07-22T04:55:56;19.70;99.90
5274;DHT22;56254;50.956;7.010;2022-07-22T04:58:22;19.70;99.90
5274;DHT22;56254;50.956;7.010;2022-07-22T05:00:48;19.80;99.90
5274;DHT22;56254;50.956;7.010;2022-07-22T05:03:13;19.90;99.90
5274;DHT22;56254;50.956;7.010;2022-07-22T05:05:39;19.80;99.90
5274;DHT22;56254;50.956;7.010;2022-07-22T05:08:05;19.80;99.90
5274;DHT22;56254;50.956;7.010;2022-07-22T05:10:32;19.90;99.90
5274;DHT22;56254;50.956;7.010;2022-07-22T05:12:58;19.80;99.90
5274;DHT22;56254;50.956;7.010;2022-07-22T05:15:24;19.80;99.90
5274;DHT22;56254;50.956;7.010;2022-07-22T05:17:50;19.70;99.90
5274;DHT22;56254;50.956;7.010;2022-07-22T05:20:16;19.80;99.90
5274;DHT22;56254;50.956;7.010;2022-07-22T05:22:42;19.70;99.90
5274;DHT22;56254;50.956;7.010;2022-07-22T05:25:08;19.80;99.90
5274;DHT22;56254;50.956;7.010;2022-07-22T05:27:34;19.70;99.90
5274;DHT22;56254;50.956;7.010;2022-07-22T05:30:04;19.70;99.90
5274;DHT22;56254;50.956;7.010;2022-07-22T05:32:30;19.70;99.90
5274;DHT22;56254;50.956;7.010;2022-07-22T05:34:56;19.70;99.90
5274;DHT22;56254;50.956;7.010;2022-07-22T05:37:22;19.60;99.90
5274;DHT22;56254;50.956;7.010;2022-07-22T05:39:47;19.60;99.90
5274;DHT22;56254;50.956;7.010;2022-07-22T05:42:13;19.70;99.90
5274;DHT22;56254;50.956;7.010;2022-07-22T05:44:39;19.70;99.90
5274;DHT22;56254;50.956;7.010;2022-07-22T05:47:04;19.60;99.90
5274;DHT22;56254;50.956;7.010;2022-07-22T05:49:30;19.70;99.90
5274;DHT22;56254;50.956;7.010;2022-07-22T05:51:56;19.70;99.90
5274;DHT22;56254;50.956;7.010;2022-07-22T05:54:27;19.80;99.90
5274;DHT22;56254;50.956;7.010;2022-07-22T05:56:53;19.60;99.90
5274;DHT22;56254;50.956;7.010;2022-07-22T05:59:19;19.50;99.90
5274;DHT22;56254;50.956;7.010;2022-07-22T06:01:44;19.60;99.90
5274;DHT22;56254;50.956;7.010;2022-07-22T06:04:11;19.60;99.90
5274;DHT22;56254;50.956;7.010;2022-07-22T06:06:37;19.60;99.90
5274;DHT22;56254;50.956;7.010;2022-07-22T06:09:03;19.70;99.90
5274;DHT22;56254;50.956;7.010;2022-07-22T06:11:30;19.70;99.90
5274;DHT22;56254;50.956;7.010;2022-07-22T06:13:55;19.70;99.90
5274;DHT22;56254;50.956;7.010;2022-07-22T06:16:21;19.70;99.90
5274;DHT22;56254;50.956;7.010;2022-07-22T06:18:47;19.80;99.90
5274;DHT22;56254;50.956;7.010;2022-07-22T06:21:12;19.80;99.90
5274;DHT22;56254;50.956;7.010;2022-07-22T06:23:38;19.90;99.90
5274;DHT22;56254;50.956;7.010;2022-07-22T06:26:04;19.70;99.90
5274;DHT22;56254;50.956;7.010;2022-07-22T06:28:29;19.90;99.90
5274;DHT22;56254;50.956;7.010;2022-07-22T06:30:55;19.90;99.90
5274;DHT22;56254;50.956;7.010;2022-07-22T06:33:23;19.90;99.90
5274;DHT22;56254;50.956;7.010;2022-07-22T06:35:49;20.00;99.90
5274;DHT22;56254;50.956;7.010;2022-07-22T06:38:14;20.10;99.90
5274;DHT22;56254;50.956;7.010;2022-07-22T06:40:40;20.10;99.90
5274;DHT22;56254;50.956;7.010;2022-07-22T06:43:06;20.10;99.90
5274;DHT22;56254;50.956;7.010;2022-07-22T06:45:32;20.10;99.90
5274;DHT22;56254;50.956;7.010;2022-07-22T06:47:57;20.00;99.90
5274;DHT22;56254;50.956;7.010;2022-07-22T06:50:23;20.10;99.90
5274;DHT22;56254;50.956;7.010;2022-07-22T06:52:50;20.00;99.90
5274;DHT22;56254;50.956;7.010;2022-07-22T06:55:15;20.00;99.90
5274;DHT22;56254;50.956;7.010;2022-07-22T06:57:41;20.00;99.90
5274;DHT22;56254;50.956;7.010;2022-07-22T07:00:08;20.00;99.90
5274;DHT22;56254;50.956;7.010;2022-07-22T07:02:40;20.10;99.90
5274;DHT22;56254;50.956;7.010;2022-07-22T07:05:06;20.10;99.90
5274;DHT22;56254;50.956;7.010;2022-07-22T07:07:33;20.30;99.90
5274;DHT22;56254;50.956;7.010;2022-07-22T07:09:59;20.10;99.90
5274;DHT22;56254;50.956;7.010;2022-07-22T07:12:25;20.20;99.90
5274;DHT22;56254;50.956;7.010;2022-07-22T07:14:50;20.10;99.90
5274;DHT22;56254;50.956;7.010;2022-07-22T07:17:16;20.20;99.90
5274;DHT22;56254;50.956;7.010;2022-07-22T07:19:42;20.20;99.90
5274;DHT22;56254;50.956;7.010;2022-07-22T07:22:08;20.30;99.90
5274;DHT22;56254;50.956;7.010;2022-07-22T07:24:33;20.40;99.90
5274;DHT22;56254;50.956;7.010;2022-07-22T07:26:59;20.50;99.90
5274;DHT22;56254;50.956;7.010;2022-07-22T07:29:25;20.60;99.90
5274;DHT22;56254;50.956;7.010;2022-07-22T07:31:50;20.50;99.90
5274;DHT22;56254;50.956;7.010;2022-07-22T07:34:16;20.60;99.90
5274;DHT22;56254;50.956;7.010;2022-07-22T07:36:43;20.80;99.90
5274;DHT22;56254;50.956;7.010;2022-07-22T07:39:08;20.80;99.90
5274;DHT22;56254;50.956;7.010;2022-07-22T07:41:34;20.80;99.90
5274;DHT22;56254;50.956;7.010;2022-07-22T07:44:00;20.90;99.90
5274;DHT22;56254;50.956;7.010;2022-07-22T07:46:25;20.90;99.90
5274;DHT22;56254;50.956;7.010;2022-07-22T07:48:51;20.90;99.90
5274;DHT22;56254;50.956;7.010;2022-07-22T07:51:18;20.90;99.90
5274;DHT22;56254;50.956;7.010;2022-07-22T07:53:44;21.00;99.90
5274;DHT22;56254;50.956;7.010;2022-07-22T07:56:10;20.90;99.90
5274;DHT22;56254;50.956;7.010;2022-07-22T07:58:36;20.90;99.90
5274;DHT22;56254;50.956;7.010;2022-07-22T08:01:02;21.00;99.90
5274;DHT22;56254;50.956;7.010;2022-07-22T08:03:28;21.00;99.90
5274;DHT22;56254;50.956;7.010;2022-07-22T08:05:53;21.10;99.90
5274;DHT22;56254;50.956;7.010;2022-07-22T08:08:19;21.10;99.90
5274;DHT22;56254;50.956;7.010;2022-07-22T08:10:45;21.10;99.90
5274;DHT22;56254;50.956;7.010;2022-07-22T08:13:12;21.10;99.90
5274;DHT22;56254;50.956;7.010;2022-07-22T08:15:38;21.10;99.90
5274;DHT22;56254;50.956;7.010;2022-07-22T08:18:04;21.10;99.90
5274;DHT22;56254;50.956;7.010;2022-07-22T08:20:30;21.10;99.90
5274;DHT22;56254;50.956;7.010;2022-07-22T08:22:56;21.20;99.90
5274;DHT22;56254;50.956;7.010;2022-07-22T08:25:22;21.30;99.90
5274;DHT22;56254;50.956;7.010;2022-07-22T08:27:48;21.20;99.90
5274;DHT22;56254;50.956;7.010;2022-07-22T08:30:14;21.30;99.90
5274;DHT22;56254;50.956;7.010;2022-07-22T08:32:40;21.20;99.90
5274;DHT22;56254;50.956;7.010;2022-07-22T08:35:09;21.30;99.90
5274;DHT22;56254;50.956;7.010;2022-07-22T08:37:35;21.30;99.90
5274;DHT22;56254;50.956;7.010;2022-07-22T08:40:01;21.30;99.90
5274;DHT22;56254;50.956;7.010;2022-07-22T08:42:27;21.30;99.90
5274;DHT22;56254;50.956;7.010;2022-07-22T08:44:53;21.30;99.30
5274;DHT22;56254;50.956;7.010;2022-07-22T08:47:23;21.30;99.20
5274;DHT22;56254;50.956;7.010;2022-07-22T08:49:50;21.30;99.90
5274;DHT22;56254;50.956;7.010;2022-07-22T08:52:16;21.40;99.90
5274;DHT22;56254;50.956;7.010;2022-07-22T08:54:43;21.30;99.90
5274;DHT22;56254;50.956;7.010;2022-07-22T08:57:09;21.30;99.60
5274;DHT22;56254;50.956;7.010;2022-07-22T08:59:55;21.30;99.90
5274;DHT22;56254;50.956;7.010;2022-07-22T09:02:22;21.30;99.90
5274;DHT22;56254;50.956;7.010;2022-07-22T09:04:59;21.40;99.90
5274;DHT22;56254;50.956;7.010;2022-07-22T09:07:34;21.50;99.90
5274;DHT22;56254;50.956;7.010;2022-07-22T09:10:06;21.60;99.60
5274;DHT22;56254;50.956;7.010;2022-07-22T09:12:32;21.70;98.10
5274;DHT22;56254;50.956;7.010;2022-07-22T09:15:01;21.80;97.90
5274;DHT22;56254;50.956;7.010;2022-07-22T09:17:36;21.90;96.80
5274;DHT22;56254;50.956;7.010;2022-07-22T09:20:18;22.20;96.00
5274;DHT22;56254;50.956;7.010;2022-07-22T09:22:46;22.30;94.40
5274;DHT22;56254;50.956;7.010;2022-07-22T09:25:32;22.70;93.30
5274;DHT22;56254;50.956;7.010;2022-07-22T09:30:35;23.00;90.90
5274;DHT22;56254;50.956;7.010;2022-07-22T09:33:01;23.20;90.90
5274;DHT22;56254;50.956;7.010;2022-07-22T09:35:28;23.40;88.60
5274;DHT22;56254;50.956;7.010;2022-07-22T09:37:57;23.70;85.50
5274;DHT22;56254;50.956;7.010;2022-07-22T09:40:29;23.80;85.30
5274;DHT22;56254;50.956;7.010;2022-07-22T09:42:57;24.10;84.30
5274;DHT22;56254;50.956;7.010;2022-07-22T09:45:25;24.10;84.80
5274;DHT22;56254;50.956;7.010;2022-07-22T09:47:54;24.20;84.20
5274;DHT22;56254;50.956;7.010;2022-07-22T09:50:28;24.30;82.60
5274;DHT22;56254;50.956;7.010;2022-07-22T09:52:56;24.40;82.30
5274;DHT22;56254;50.956;7.010;2022-07-22T09:55:25;24.40;82.50
5274;DHT22;56254;50.956;7.010;2022-07-22T09:57:53;24.30;81.60
5274;DHT22;56254;50.956;7.010;2022-07-22T10:00:21;24.40;81.00
5274;DHT22;56254;50.956;7.010;2022-07-22T10:05:19;24.40;83.90
5274;DHT22;56254;50.956;7.010;2022-07-22T10:07:46;24.20;85.00
5274;DHT22;56254;50.956;7.010;2022-07-22T10:10:15;24.10;84.40
5274;DHT22;56254;50.956;7.010;2022-07-22T10:12:42;24.10;84.20
5274;DHT22;56254;50.956;7.010;2022-07-22T10:15:14;24.20;83.90
5274;DHT22;56254;50.956;7.010;2022-07-22T10:17:43;23.80;84.40
5274;DHT22;56254;50.956;7.010;2022-07-22T10:20:11;24.00;83.50
5274;DHT22;56254;50.956;7.010;2022-07-22T10:25:14;24.30;82.40
5274;DHT22;56254;50.956;7.010;2022-07-22T10:27:51;24.40;82.30
5274;DHT22;56254;50.956;7.010;2022-07-22T10:30:20;24.70;81.60
5274;DHT22;56254;50.956;7.010;2022-07-22T10:33:08;24.70;81.00
5274;DHT22;56254;50.956;7.010;2022-07-22T10:35:56;24.70;81.10
5274;DHT22;56254;50.956;7.010;2022-07-22T10:38:23;24.80;80.70
5274;DHT22;56254;50.956;7.010;2022-07-22T10:41:01;24.90;79.70
5274;DHT22;56254;50.956;7.010;2022-07-22T10:43:31;24.80;79.90
5274;DHT22;56254;50.956;7.010;2022-07-22T10:46:10;24.80;79.80
5274;DHT22;56254;50.956;7.010;2022-07-22T10:53:56;24.90;79.20
5274;DHT22;56254;50.956;7.010;2022-07-22T10:56:27;25.00;79.60
5274;DHT22;56254;50.956;7.010;2022-07-22T10:58:59;24.70;80.30
5274;DHT22;56254;50.956;7.010;2022-07-22T11:01:27;24.60;79.20
5274;DHT22;56254;50.956;7.010;2022-07-22T11:03:54;24.70;80.70
5274;DHT22;56254;50.956;7.010;2022-07-22T11:06:23;25.20;79.80
5274;DHT22;56254;50.956;7.010;2022-07-22T11:08:58;25.50;78.70
5274;DHT22;56254;50.956;7.010;2022-07-22T11:11:42;25.70;77.50
5274;DHT22;56254;50.956;7.010;2022-07-22T11:14:30;25.90;77.00
5274;DHT22;56254;50.956;7.010;2022-07-22T11:16:58;26.20;76.80
5274;DHT22;56254;50.956;7.010;2022-07-22T11:19:28;26.40;72.50
5274;DHT22;56254;50.956;7.010;2022-07-22T11:21:59;26.00;74.40
5274;DHT22;56254;50.956;7.010;2022-07-22T11:24:28;26.00;74.40
5274;DHT22;56254;50.956;7.010;2022-07-22T11:26:55;25.90;74.80
5274;DHT22;56254;50.956;7.010;2022-07-22T11:29:27;25.80;75.10
5274;DHT22;56254;50.956;7.010;2022-07-22T11:31:54;25.70;75.80
5274;DHT22;56254;50.956;7.010;2022-07-22T11:34:23;26.00;73.20
5274;DHT22;56254;50.956;7.010;2022-07-22T11:36:49;25.80;73.80
5274;DHT22;56254;50.956;7.010;2022-07-22T11:39:19;26.10;75.30
5274;DHT22;56254;50.956;7.010;2022-07-22T11:41:46;26.20;74.50
5274;DHT22;56254;50.956;7.010;2022-07-22T11:44:11;26.20;73.00
5274;DHT22;56254;50.956;7.010;2022-07-22T11:46:40;26.40;70.50
5274;DHT22;56254;50.956;7.010;2022-07-22T11:49:15;26.30;72.10
5274;DHT22;56254;50.956;7.010;2022-07-22T11:51:41;26.10;71.90
5274;DHT22;56254;50.956;7.010;2022-07-22T11:54:07;26.10;72.70
5274;DHT22;56254;50.956;7.010;2022-07-22T11:56:33;26.30;70.90
5274;DHT22;56254;50.956;7.010;2022-07-22T11:59:00;26.30;71.70
5274;DHT22;56254;50.956;7.010;2022-07-22T12:01:32;26.20;72.60
5274;DHT22;56254;50.956;7.010;2022-07-22T12:06:31;26.00;72.80
5274;DHT22;56254;50.956;7.010;2022-07-22T12:09:09;25.30;75.10
5274;DHT22;56254;50.956;7.010;2022-07-22T12:11:39;25.30;75.70
5274;DHT22;56254;50.956;7.010;2022-07-22T12:14:10;25.50;74.70
5274;DHT22;56254;50.956;7.010;2022-07-22T12:16:37;25.60;74.70
5274;DHT22;56254;50.956;7.010;2022-07-22T12:19:04;25.30;73.70
5274;DHT22;56254;50.956;7.010;2022-07-22T12:21:32;24.90;75.80
5274;DHT22;56254;50.956;7.010;2022-07-22T12:24:03;24.90;76.10
5274;DHT22;56254;50.956;7.010;2022-07-22T12:26:48;25.20;75.20
5274;DHT22;56254;50.956;7.010;2022-07-22T12:31:45;25.50;73.60
5274;DHT22;56254;50.956;7.010;2022-07-22T12:34:12;25.80;74.00
5274;DHT22;56254;50.956;7.010;2022-07-22T12:36:38;26.10;74.20
5274;DHT22;56254;50.956;7.010;2022-07-22T12:39:18;26.10;73.50
5274;DHT22;56254;50.956;7.010;2022-07-22T12:41:53;26.40;71.10
5274;DHT22;56254;50.956;7.010;2022-07-22T12:44:23;26.70;69.80
5274;DHT22;56254;50.956;7.010;2022-07-22T12:46:52;27.00;67.70
5274;DHT22;56254;50.956;7.010;2022-07-22T12:49:20;26.80;67.90
5274;DHT22;56254;50.956;7.010;2022-07-22T12:54:31;26.80;67.90
5274;DHT22;56254;50.956;7.010;2022-07-22T12:56:56;27.20;66.80
5274;DHT22;56254;50.956;7.010;2022-07-22T12:59:22;27.30;66.90
5274;DHT22;56254;50.956;7.010;2022-07-22T13:01:48;27.30;67.00
5274;DHT22;56254;50.956;7.010;2022-07-22T13:04:14;27.30;67.20
5274;DHT22;56254;50.956;7.010;2022-07-22T13:06:40;27.20;67.60
5274;DHT22;56254;50.956;7.010;2022-07-22T13:09:06;27.20;66.40
5274;DHT22;56254;50.956;7.010;2022-07-22T13:11:32;26.70;67.30
5274;DHT22;56254;50.956;7.010;2022-07-22T13:13:57;26.90;68.90
5274;DHT22;56254;50.956;7.010;2022-07-22T13:16:23;26.90;67.80
5274;DHT22;56254;50.956;7.010;2022-07-22T13:18:52;27.20;67.00
5274;DHT22;56254;50.956;7.010;2022-07-22T13:21:18;27.40;65.20
5274;DHT22;56254;50.956;7.010;2022-07-22T13:23:44;27.60;64.50
5274;DHT22;56254;50.956;7.010;2022-07-22T13:26:09;27.30;64.80
5274;DHT22;56254;50.956;7.010;2022-07-22T13:28:35;27.10;65.50
5274;DHT22;56254;50.956;7.010;2022-07-22T13:31:01;27.00;65.30
5274;DHT22;56254;50.956;7.010;2022-07-22T13:33:27;27.20;65.40
5274;DHT22;56254;50.956;7.010;2022-07-22T13:35:52;27.60;63.80
5274;DHT22;56254;50.956;7.010;2022-07-22T13:38:18;27.60;64.00
5274;DHT22;56254;50.956;7.010;2022-07-22T13:40:44;27.60;64.90
5274;DHT22;56254;50.956;7.010;2022-07-22T13:43:21;27.80;63.80
5274;DHT22;56254;50.956;7.010;2022-07-22T13:45:48;27.70;64.30
5274;DHT22;56254;50.956;7.010;2022-07-22T13:48:14;27.70;65.00
5274;DHT22;56254;50.956;7.010;2022-07-22T13:50:40;27.50;64.10
5274;DHT22;56254;50.956;7.010;2022-07-22T13:53:06;27.80;64.20
5274;DHT22;56254;50.956;7.010;2022-07-22T13:55:32;27.90;63.40
5274;DHT22;56254;50.956;7.010;2022-07-22T13:57:57;27.80;63.10
5274;DHT22;56254;50.956;7.010;2022-07-22T14:00:24;27.80;63.60
5274;DHT22;56254;50.956;7.010;2022-07-22T14:02:50;27.70;63.10
5274;DHT22;56254;50.956;7.010;2022-07-22T14:05:17;27.70;64.00
5274;DHT22;56254;50.956;7.010;2022-07-22T14:07:43;27.50;64.20
5274;DHT22;56254;50.956;7.010;2022-07-22T14:10:11;27.40;64.00
5274;DHT22;56254;50.956;7.010;2022-07-22T14:12:37;27.00;65.00
5274;DHT22;56254;50.956;7.010;2022-07-22T14:15:03;27.00;65.00
5274;DHT22;56254;50.956;7.010;2022-07-22T14:17:29;27.30;64.00
5274;DHT22;56254;50.956;7.010;2022-07-22T14:19:54;27.30;63.90
5274;DHT22;56254;50.956;7.010;2022-07-22T14:22:20;27.40;64.10
5274;DHT22;56254;50.956;7.010;2022-07-22T14:24:46;27.40;65.60
5274;DHT22;56254;50.956;7.010;2022-07-22T14:27:12;27.60;63.50
5274;DHT22;56254;50.956;7.010;2022-07-22T14:32:04;27.40;63.40
5274;DHT22;56254;50.956;7.010;2022-07-22T14:34:30;27.40;64.30
5274;DHT22;56254;50.956;7.010;2022-07-22T14:36:56;27.60;63.60
5274;DHT22;56254;50.956;7.010;2022-07-22T14:39:22;27.70;63.70
5274;DHT22;56254;50.956;7.010;2022-07-22T14:41:48;27.70;62.50
5274;DHT22;56254;50.956;7.010;2022-07-22T14:44:14;27.50;63.00
5274;DHT22;56254;50.956;7.010;2022-07-22T14:46:39;27.40;63.30
5274;DHT22;56254;50.956;7.010;2022-07-22T14:49:06;27.50;62.20
5274;DHT22;56254;50.956;7.010;2022-07-22T14:51:32;27.20;62.60
5274;DHT22;56254;50.956;7.010;2022-07-22T14:53:58;27.20;63.60
5274;DHT22;56254;50.956;7.010;2022-07-22T14:56:25;27.20;63.50
5274;DHT22;56254;50.956;7.010;2022-07-22T14:58:51;27.20;63.60
5274;DHT22;56254;50.956;7.010;2022-07-22T15:01:17;27.20;62.10
5274;DHT22;56254;50.956;7.010;2022-07-22T15:03:42;27.00;63.30
5274;DHT22;56254;50.956;7.010;2022-07-22T15:06:11;27.10;63.60
5274;DHT22;56254;50.956;7.010;2022-07-22T15:08:37;27.10;62.10
5274;DHT22;56254;50.956;7.010;2022-07-22T15:11:04;27.20;62.20
5274;DHT22;56254;50.956;7.010;2022-07-22T15:13:30;26.90;62.10
5274;DHT22;56254;50.956;7.010;2022-07-22T15:15:56;27.20;62.50
5274;DHT22;56254;50.956;7.010;2022-07-22T15:18:23;27.10;63.40
5274;DHT22;56254;50.956;7.010;2022-07-22T15:20:49;27.30;62.30
5274;DHT22;56254;50.956;7.010;2022-07-22T15:23:15;27.30;62.80
5274;DHT22;56254;50.956;7.010;2022-07-22T15:25:43;27.20;62.80
5274;DHT22;56254;50.956;7.010;2022-07-22T15:28:08;27.30;62.30
5274;DHT22;56254;50.956;7.010;2022-07-22T15:30:34;27.40;62.50
5274;DHT22;56254;50.956;7.010;2022-07-22T15:33:00;27.60;61.90
5274;DHT22;56254;50.956;7.010;2022-07-22T15:35:26;27.70;61.40
5274;DHT22;56254;50.956;7.010;2022-07-22T15:37:52;27.70;61.20
5274;DHT22;56254;50.956;7.010;2022-07-22T15:40:18;27.50;61.10
5274;DHT22;56254;50.956;7.010;2022-07-22T15:42:58;27.30;61.60
5274;DHT22;56254;50.956;7.010;2022-07-22T15:45:24;27.10;62.10
5274;DHT22;56254;50.956;7.010;2022-07-22T15:47:49;27.00;62.40
5274;DHT22;56254;50.956;7.010;2022-07-22T15:50:15;26.70;63.20
5274;DHT22;56254;50.956;7.010;2022-07-22T15:52:47;26.60;63.70
5274;DHT22;56254;50.956;7.010;2022-07-22T15:55:15;26.50;64.40
5274;DHT22;56254;50.956;7.010;2022-07-22T15:57:41;26.50;64.60
5274;DHT22;56254;50.956;7.010;2022-07-22T16:00:25;26.30;67.50
5274;DHT22;56254;50.956;7.010;2022-07-22T16:05:18;26.50;64.70
5274;DHT22;56254;50.956;7.010;2022-07-22T16:07:44;26.70;65.30
5274;DHT22;56254;50.956;7.010;2022-07-22T16:10:11;26.70;65.30